Mentor on the Lake, Ohio
Current Conditions -  °F | °C
As of 8:45 AM on Thursday 25 Dec 2014 (Local Time) from KCGF Reporting Station
Overcast Overcast  
Wind Chill: 33°   Ceiling: 2200
Heat Index: 41°   Visibility: 10mi
Dew Point: 36°   Wind: 16mph
Humidity: 81%   Direction: 260°W
Pressure: 29.85"   Gusts: 28mph
Location:  41.6763°N, 81.3297°W
Report Text: KCGF 251345Z 26014G24KT 10SM BKN022 OVC040 05/02 A2985
Loading
Personal Weather Stations






























Interactive Weather Map New forecast layout! Learn more

10-Day Weather Forecast

Advertisements
Track Severe Weather on mobile